sensor_id;sensor_type;location;lat;lon;timestamp;pressure;altitude;pressure_sealevel;temperature;humidity
32298;BME280;18782;48.984;8.548;2023-03-31T00:00:31;99296.22;;;11.06;90.09
32298;BME280;18782;48.984;8.548;2023-03-31T00:02:59;99281.63;;;11.05;89.67
32298;BME280;18782;48.984;8.548;2023-03-31T00:05:28;99285.91;;;11.06;90.00
32298;BME280;18782;48.984;8.548;2023-03-31T00:08:00;99285.91;;;11.06;89.40
32298;BME280;18782;48.984;8.548;2023-03-31T00:10:28;99280.75;;;11.06;89.79
32298;BME280;18782;48.984;8.548;2023-03-31T00:12:57;99259.28;;;11.04;88.89
32298;BME280;18782;48.984;8.548;2023-03-31T00:15:25;99260.13;;;11.03;89.17
32298;BME280;18782;48.984;8.548;2023-03-31T00:17:53;99258.41;;;11.02;90.04
32298;BME280;18782;48.984;8.548;2023-03-31T00:20:26;99261.78;;;10.98;89.98
32298;BME280;18782;48.984;8.548;2023-03-31T00:22:54;99258.31;;;10.96;89.35
32298;BME280;18782;48.984;8.548;2023-03-31T00:25:24;99256.59;;;10.95;88.77
32298;BME280;18782;48.984;8.548;2023-03-31T00:27:52;99248.00;;;10.93;89.00
32298;BME280;18782;48.984;8.548;2023-03-31T00:30:20;99251.44;;;10.95;88.99
32298;BME280;18782;48.984;8.548;2023-03-31T00:32:48;99251.44;;;10.95;89.16
32298;BME280;18782;48.984;8.548;2023-03-31T00:35:16;99248.00;;;10.93;88.68
32298;BME280;18782;48.984;8.548;2023-03-31T00:37:44;99249.69;;;10.91;89.25
32298;BME280;18782;48.984;8.548;2023-03-31T00:40:12;99246.28;;;10.92;89.29
32298;BME280;18782;48.984;8.548;2023-03-31T00:42:43;99238.50;;;10.90;88.51
32298;BME280;18782;48.984;8.548;2023-03-31T00:45:26;99227.41;;;10.93;88.62
32298;BME280;18782;48.984;8.548;2023-03-31T00:48:01;99221.41;;;10.94;87.95
32298;BME280;18782;48.984;8.548;2023-03-31T00:50:40;99220.59;;;10.98;86.70
32298;BME280;18782;48.984;8.548;2023-03-31T00:53:14;99218.03;;;11.01;86.30
32298;BME280;18782;48.984;8.548;2023-03-31T00:55:47;99219.88;;;11.11;85.66
32298;BME280;18782;48.984;8.548;2023-03-31T00:58:19;99224.19;;;11.12;86.51
32298;BME280;18782;48.984;8.548;2023-03-31T01:00:49;99239.59;;;11.09;87.16
32298;BME280;18782;48.984;8.548;2023-03-31T01:03:18;99244.75;;;11.09;85.24
32298;BME280;18782;48.984;8.548;2023-03-31T01:05:50;99256.03;;;11.20;85.33
32298;BME280;18782;48.984;8.548;2023-03-31T01:08:22;99258.94;;;11.51;80.72
32298;BME280;18782;48.984;8.548;2023-03-31T01:10:54;99229.19;;;11.90;79.35
32298;BME280;18782;48.984;8.548;2023-03-31T01:13:25;99230.31;;;12.22;77.19
32298;BME280;18782;48.984;8.548;2023-03-31T01:15:53;99211.56;;;12.54;74.25
32298;BME280;18782;48.984;8.548;2023-03-31T01:18:24;99209.84;;;12.56;73.41
32298;BME280;18782;48.984;8.548;2023-03-31T01:21:22;99204.69;;;12.59;73.26
32298;BME280;18782;48.984;8.548;2023-03-31T01:24:29;99205.56;;;12.61;72.79
32298;BME280;18782;48.984;8.548;2023-03-31T01:27:28;99201.25;;;12.59;73.65
32298;BME280;18782;48.984;8.548;2023-03-31T01:30:27;99192.63;;;12.57;72.00
32298;BME280;18782;48.984;8.548;2023-03-31T01:33:11;99196.94;;;12.61;73.04
32298;BME280;18782;48.984;8.548;2023-03-31T01:39:19;99187.47;;;12.61;72.88
32298;BME280;18782;48.984;8.548;2023-03-31T01:41:59;99184.94;;;12.64;73.65
32298;BME280;18782;48.984;8.548;2023-03-31T01:44:33;99184.91;;;12.67;73.35
32298;BME280;18782;48.984;8.548;2023-03-31T01:47:09;99183.16;;;12.57;74.84
32298;BME280;18782;48.984;8.548;2023-03-31T01:49:47;99171.13;;;12.53;75.10
32298;BME280;18782;48.984;8.548;2023-03-31T01:52:21;99175.38;;;12.52;76.36
32298;BME280;18782;48.984;8.548;2023-03-31T01:54:53;99171.09;;;12.50;77.05
32298;BME280;18782;48.984;8.548;2023-03-31T01:57:28;99177.09;;;12.43;78.51
32298;BME280;18782;48.984;8.548;2023-03-31T02:00:02;99174.50;;;12.38;78.66
32298;BME280;18782;48.984;8.548;2023-03-31T02:02:40;99162.41;;;12.36;78.64
32298;BME280;18782;48.984;8.548;2023-03-31T02:05:14;99159.84;;;12.36;78.71
32298;BME280;18782;48.984;8.548;2023-03-31T02:07:47;99134.03;;;12.36;79.74
32298;BME280;18782;48.984;8.548;2023-03-31T02:10:16;99139.16;;;12.30;80.75
32298;BME280;18782;48.984;8.548;2023-03-31T02:12:48;99121.97;;;12.28;80.68
32298;BME280;18782;48.984;8.548;2023-03-31T02:15:20;99121.91;;;12.19;80.91
32298;BME280;18782;48.984;8.548;2023-03-31T02:17:53;99119.34;;;12.21;80.97
32298;BME280;18782;48.984;8.548;2023-03-31T02:20:22;99107.31;;;12.17;81.75
32298;BME280;18782;48.984;8.548;2023-03-31T02:22:53;99090.09;;;12.19;82.42
32298;BME280;18782;48.984;8.548;2023-03-31T02:25:24;99078.06;;;12.19;82.43
32298;BME280;18782;48.984;8.548;2023-03-31T02:27:59;99063.44;;;12.21;83.65
32298;BME280;18782;48.984;8.548;2023-03-31T02:30:34;99056.53;;;12.16;84.47
32298;BME280;18782;48.984;8.548;2023-03-31T02:33:05;99048.81;;;12.11;85.32
32298;BME280;18782;48.984;8.548;2023-03-31T02:35:34;99043.63;;;12.08;86.00
32298;BME280;18782;48.984;8.548;2023-03-31T02:38:02;99024.72;;;12.06;86.91
32298;BME280;18782;48.984;8.548;2023-03-31T02:40:32;99013.50;;;11.98;87.56
32298;BME280;18782;48.984;8.548;2023-03-31T02:43:01;99002.28;;;11.91;87.98
32298;BME280;18782;48.984;8.548;2023-03-31T02:45:38;98984.19;;;11.84;88.23
32298;BME280;18782;48.984;8.548;2023-03-31T02:48:10;98985.00;;;11.78;88.52
32298;BME280;18782;48.984;8.548;2023-03-31T02:50:54;98972.03;;;11.61;89.89
32298;BME280;18782;48.984;8.548;2023-03-31T02:53:38;98965.06;;;11.42;92.07
32298;BME280;18782;48.984;8.548;2023-03-31T02:56:26;98960.75;;;11.35;91.39
32298;BME280;18782;48.984;8.548;2023-03-31T02:59:17;98949.53;;;11.27;92.54
32298;BME280;18782;48.984;8.548;2023-03-31T03:02:00;98931.50;;;11.25;92.96
32298;BME280;18782;48.984;8.548;2023-03-31T03:04:49;98931.44;;;11.16;93.17
32298;BME280;18782;48.984;8.548;2023-03-31T03:07:24;98931.34;;;11.01;93.78
32298;BME280;18782;48.984;8.548;2023-03-31T03:10:00;98915.88;;;10.97;93.98
32298;BME280;18782;48.984;8.548;2023-03-31T03:12:33;98914.16;;;10.96;94.52
32298;BME280;18782;48.984;8.548;2023-03-31T03:15:07;98911.56;;;10.95;94.95
32298;BME280;18782;48.984;8.548;2023-03-31T03:17:41;98895.25;;;10.94;95.11
32298;BME280;18782;48.984;8.548;2023-03-31T03:20:11;98890.91;;;10.83;95.50
32298;BME280;18782;48.984;8.548;2023-03-31T03:22:39;98887.41;;;10.73;96.19
32298;BME280;18782;48.984;8.548;2023-03-31T03:25:09;98880.50;;;10.67;95.29
32298;BME280;18782;48.984;8.548;2023-03-31T03:27:38;98878.78;;;10.69;95.66
32298;BME280;18782;48.984;8.548;2023-03-31T03:30:09;98882.22;;;10.68;96.37
32298;BME280;18782;48.984;8.548;2023-03-31T03:32:38;98871.06;;;10.66;96.56
32298;BME280;18782;48.984;8.548;2023-03-31T03:35:07;98860.72;;;10.63;96.85
32298;BME280;18782;48.984;8.548;2023-03-31T03:37:35;98849.53;;;10.58;96.79
32298;BME280;18782;48.984;8.548;2023-03-31T03:40:04;98832.34;;;10.54;97.07
32298;BME280;18782;48.984;8.548;2023-03-31T03:42:32;98820.31;;;10.47;97.82
32298;BME280;18782;48.984;8.548;2023-03-31T03:45:00;98791.09;;;10.36;98.16
32298;BME280;18782;48.984;8.548;2023-03-31T03:47:29;98799.63;;;10.29;97.91
32298;BME280;18782;48.984;8.548;2023-03-31T03:49:57;98787.50;;;10.22;97.78
32298;BME280;18782;48.984;8.548;2023-03-31T03:52:24;98773.78;;;10.19;97.11
32298;BME280;18782;48.984;8.548;2023-03-31T03:54:52;98791.78;;;10.18;96.97
32298;BME280;18782;48.984;8.548;2023-03-31T03:57:20;98769.50;;;10.20;96.76
32298;BME280;18782;48.984;8.548;2023-03-31T03:59:48;98796.94;;;10.19;96.97
32298;BME280;18782;48.984;8.548;2023-03-31T04:02:16;98824.38;;;10.20;96.12
32298;BME280;18782;48.984;8.548;2023-03-31T04:04:45;98839.88;;;10.24;96.79
32298;BME280;18782;48.984;8.548;2023-03-31T04:07:13;98839.03;;;10.28;96.34
32298;BME280;18782;48.984;8.548;2023-03-31T04:09:41;98834.78;;;10.33;96.71
32298;BME280;18782;48.984;8.548;2023-03-31T04:12:09;98836.53;;;10.34;96.84
32298;BME280;18782;48.984;8.548;2023-03-31T04:14:36;98827.91;;;10.30;96.64
32298;BME280;18782;48.984;8.548;2023-03-31T04:17:04;98833.91;;;10.32;96.86
32298;BME280;18782;48.984;8.548;2023-03-31T04:19:32;98826.19;;;10.29;96.53
32298;BME280;18782;48.984;8.548;2023-03-31T04:22:01;98815.06;;;10.30;97.07
32298;BME280;18782;48.984;8.548;2023-03-31T04:24:30;98798.75;;;10.30;96.72
32298;BME280;18782;48.984;8.548;2023-03-31T04:26:59;98789.34;;;10.32;96.64
32298;BME280;18782;48.984;8.548;2023-03-31T04:29:28;98784.19;;;10.29;96.40
32298;BME280;18782;48.984;8.548;2023-03-31T04:31:59;98771.31;;;10.30;96.05
32298;BME280;18782;48.984;8.548;2023-03-31T04:34:27;98777.34;;;10.31;96.34
32298;BME280;18782;48.984;8.548;2023-03-31T04:37:02;98771.38;;;10.38;97.21
32298;BME280;18782;48.984;8.548;2023-03-31T04:39:30;98760.25;;;10.39;96.57
32298;BME280;18782;48.984;8.548;2023-03-31T04:41:58;98771.38;;;10.38;97.04
32298;BME280;18782;48.984;8.548;2023-03-31T04:44:27;98772.22;;;10.37;97.02
32298;BME280;18782;48.984;8.548;2023-03-31T04:46:55;98773.94;;;10.38;96.89
32298;BME280;18782;48.984;8.548;2023-03-31T04:49:24;98774.81;;;10.40;96.87
32298;BME280;18782;48.984;8.548;2023-03-31T04:51:52;98778.25;;;10.43;97.58
32298;BME280;18782;48.984;8.548;2023-03-31T04:54:21;98792.00;;;10.44;97.17
32298;BME280;18782;48.984;8.548;2023-03-31T04:56:49;98793.69;;;10.42;97.56
32298;BME280;18782;48.984;8.548;2023-03-31T04:59:16;98799.69;;;10.41;97.93
32298;BME280;18782;48.984;8.548;2023-03-31T05:01:44;98801.44;;;10.45;97.32
32298;BME280;18782;48.984;8.548;2023-03-31T05:04:12;98801.41;;;10.39;97.42
32298;BME280;18782;48.984;8.548;2023-03-31T05:06:40;98809.09;;;10.37;97.52
32298;BME280;18782;48.984;8.548;2023-03-31T05:09:08;98809.94;;;10.38;97.87
32298;BME280;18782;48.984;8.548;2023-03-31T05:11:37;98823.66;;;10.34;98.77
32298;BME280;18782;48.984;8.548;2023-03-31T05:14:05;98822.78;;;10.33;98.75
32298;BME280;18782;48.984;8.548;2023-03-31T05:16:33;98821.88;;;10.27;99.67
32298;BME280;18782;48.984;8.548;2023-03-31T05:19:01;98803.91;;;10.31;99.28
32298;BME280;18782;48.984;8.548;2023-03-31T05:21:29;98786.75;;;10.32;99.57
32298;BME280;18782;48.984;8.548;2023-03-31T05:23:57;98773.91;;;10.32;100.00
32298;BME280;18782;48.984;8.548;2023-03-31T05:26:25;98765.31;;;10.33;100.00
32298;BME280;18782;48.984;8.548;2023-03-31T05:28:54;98740.50;;;10.35;100.00
32298;BME280;18782;48.984;8.548;2023-03-31T05:31:22;98731.06;;;10.34;100.00
32298;BME280;18782;48.984;8.548;2023-03-31T05:33:50;98722.44;;;10.26;100.00
32298;BME280;18782;48.984;8.548;2023-03-31T05:36:18;98719.00;;;10.28;100.00
32298;BME280;18782;48.984;8.548;2023-03-31T05:38:48;98722.47;;;10.29;100.00
32298;BME280;18782;48.984;8.548;2023-03-31T05:41:17;98728.38;;;10.20;100.00
32298;BME280;18782;48.984;8.548;2023-03-31T05:43:46;98735.19;;;10.13;100.00
32298;BME280;18782;48.984;8.548;2023-03-31T05:46:15;98739.44;;;10.08;100.00
32298;BME280;18782;48.984;8.548;2023-03-31T05:48:44;98727.41;;;10.07;100.00
32298;BME280;18782;48.984;8.548;2023-03-31T05:51:12;98723.16;;;10.12;100.00
32298;BME280;18782;48.984;8.548;2023-03-31T05:53:40;98716.28;;;10.11;100.00
32298;BME280;18782;48.984;8.548;2023-03-31T05:56:08;98692.34;;;10.15;100.00
32298;BME280;18782;48.984;8.548;2023-03-31T05:58:37;98672.72;;;10.24;100.00
32298;BME280;18782;48.984;8.548;2023-03-31T06:01:07;98680.41;;;10.28;100.00
32298;BME280;18782;48.984;8.548;2023-03-31T06:03:38;98676.13;;;10.26;100.00
32298;BME280;18782;48.984;8.548;2023-03-31T06:06:08;98670.13;;;10.28;100.00
32298;BME280;18782;48.984;8.548;2023-03-31T06:08:38;98664.13;;;10.28;100.00
32298;BME280;18782;48.984;8.548;2023-03-31T06:11:06;98662.44;;;10.31;100.00
32298;BME280;18782;48.984;8.548;2023-03-31T06:13:35;98677.88;;;10.33;100.00
32298;BME280;18782;48.984;8.548;2023-03-31T06:16:03;98675.31;;;10.30;100.00
32298;BME280;18782;48.984;8.548;2023-03-31T06:18:33;98685.56;;;10.28;100.00
32298;BME280;18782;48.984;8.548;2023-03-31T06:21:03;98670.94;;;10.23;100.00
32298;BME280;18782;48.984;8.548;2023-03-31T06:23:32;98673.59;;;10.29;100.00
32298;BME280;18782;48.984;8.548;2023-03-31T06:26:00;98671.03;;;10.38;100.00
32298;BME280;18782;48.984;8.548;2023-03-31T06:28:29;98654.84;;;10.56;100.00
32298;BME280;18782;48.984;8.548;2023-03-31T06:31:01;98648.03;;;10.71;100.00
32298;BME280;18782;48.984;8.548;2023-03-31T06:33:29;98654.09;;;10.87;100.00
32298;BME280;18782;48.984;8.548;2023-03-31T06:35:57;98642.09;;;10.98;100.00
32298;BME280;18782;48.984;8.548;2023-03-31T06:38:29;98629.22;;;11.06;100.00
32298;BME280;18782;48.984;8.548;2023-03-31T06:40:56;98625.81;;;11.21;97.71
32298;BME280;18782;48.984;8.548;2023-03-31T06:43:24;98624.09;;;11.24;99.88
32298;BME280;18782;48.984;8.548;2023-03-31T06:45:52;98629.25;;;11.28;99.78
32298;BME280;18782;48.984;8.548;2023-03-31T06:48:21;98646.44;;;11.22;99.65
32298;BME280;18782;48.984;8.548;2023-03-31T06:50:49;98646.41;;;11.32;99.44
32298;BME280;18782;48.984;8.548;2023-03-31T06:53:16;98648.16;;;11.34;97.02
32298;BME280;18782;48.984;8.548;2023-03-31T06:55:45;98620.66;;;11.47;96.37
32298;BME280;18782;48.984;8.548;2023-03-31T06:58:13;98592.34;;;11.44;96.67
32298;BME280;18782;48.984;8.548;2023-03-31T07:00:41;98527.03;;;11.54;95.84
32298;BME280;18782;48.984;8.548;2023-03-31T07:03:11;98596.59;;;11.66;95.17
32298;BME280;18782;48.984;8.548;2023-03-31T07:05:40;98601.72;;;11.72;91.29
32298;BME280;18782;48.984;8.548;2023-03-31T07:08:07;98597.44;;;11.84;91.34
32298;BME280;18782;48.984;8.548;2023-03-31T07:10:35;98587.09;;;11.90;89.38
32298;BME280;18782;48.984;8.548;2023-03-31T07:13:04;98615.44;;;12.00;90.49
32298;BME280;18782;48.984;8.548;2023-03-31T07:15:31;98602.53;;;12.08;88.83
32298;BME280;18782;48.984;8.548;2023-03-31T07:17:59;98606.78;;;12.23;88.20
32298;BME280;18782;48.984;8.548;2023-03-31T07:20:29;98605.88;;;12.38;88.12
32298;BME280;18782;48.984;8.548;2023-03-31T07:22:58;98611.84;;;12.46;87.62
32298;BME280;18782;48.984;8.548;2023-03-31T07:25:25;98612.69;;;12.51;86.58
32298;BME280;18782;48.984;8.548;2023-03-31T07:27:53;98607.56;;;12.42;84.51
32298;BME280;18782;48.984;8.548;2023-03-31T07:30:22;98615.28;;;12.54;84.70
32298;BME280;18782;48.984;8.548;2023-03-31T07:32:51;98601.47;;;12.57;83.36
32298;BME280;18782;48.984;8.548;2023-03-31T07:35:20;98615.19;;;12.68;80.89
32298;BME280;18782;48.984;8.548;2023-03-31T07:37:49;98612.53;;;12.85;80.14
32298;BME280;18782;48.984;8.548;2023-03-31T07:40:19;98610.69;;;13.02;78.59
32298;BME280;18782;48.984;8.548;2023-03-31T07:42:47;98626.91;;;13.19;76.69
32298;BME280;18782;48.984;8.548;2023-03-31T07:45:18;98626.00;;;13.32;77.23
32298;BME280;18782;48.984;8.548;2023-03-31T07:47:48;98625.03;;;13.41;75.27
32298;BME280;18782;48.984;8.548;2023-03-31T07:50:17;98639.53;;;13.62;73.94
32298;BME280;18782;48.984;8.548;2023-03-31T07:52:46;98630.13;;;13.53;72.58
32298;BME280;18782;48.984;8.548;2023-03-31T07:55:14;98636.84;;;13.74;74.38
32298;BME280;18782;48.984;8.548;2023-03-31T07:57:42;98636.84;;;13.73;71.63
32298;BME280;18782;48.984;8.548;2023-03-31T08:00:13;98637.75;;;13.69;71.15
32298;BME280;18782;48.984;8.548;2023-03-31T08:02:41;98663.72;;;13.58;70.08
32298;BME280;18782;48.984;8.548;2023-03-31T08:05:12;98655.88;;;13.66;71.38
32298;BME280;18782;48.984;8.548;2023-03-31T08:07:42;98634.34;;;13.62;71.64
32298;BME280;18782;48.984;8.548;2023-03-31T08:10:12;98620.56;;;13.63;70.90
32298;BME280;18782;48.984;8.548;2023-03-31T08:12:41;98630.81;;;13.72;71.28
32298;BME280;18782;48.984;8.548;2023-03-31T08:15:09;98607.38;;;13.88;72.04
32298;BME280;18782;48.984;8.548;2023-03-31T08:17:37;98618.63;;;13.87;70.14
32298;BME280;18782;48.984;8.548;2023-03-31T08:20:06;98610.78;;;13.94;68.84
32298;BME280;18782;48.984;8.548;2023-03-31T08:22:37;98600.91;;;14.28;69.51
32298;BME280;18782;48.984;8.548;2023-03-31T08:25:06;98645.13;;;14.10;68.46
32298;BME280;18782;48.984;8.548;2023-03-31T08:27:35;98621.75;;;14.16;70.16
32298;BME280;18782;48.984;8.548;2023-03-31T08:30:05;98621.28;;;13.79;70.90
32298;BME280;18782;48.984;8.548;2023-03-31T08:32:33;98618.66;;;13.83;72.07
32298;BME280;18782;48.984;8.548;2023-03-31T08:47:22;98626.44;;;13.80;71.57
32298;BME280;18782;48.984;8.548;2023-03-31T08:49:55;98629.88;;;13.84;70.25
32298;BME280;18782;48.984;8.548;2023-03-31T08:52:29;98620.22;;;13.97;69.07
32298;BME280;18782;48.984;8.548;2023-03-31T08:55:02;98604.56;;;14.10;69.62
32298;BME280;18782;48.984;8.548;2023-03-31T08:57:37;98603.69;;;14.12;68.38
32298;BME280;18782;48.984;8.548;2023-03-31T09:00:14;98614.88;;;14.15;67.01
32298;BME280;18782;48.984;8.548;2023-03-31T09:02:49;98609.44;;;14.36;68.12
32298;BME280;18782;48.984;8.548;2023-03-31T09:05:39;98628.28;;;14.49;66.72
32298;BME280;18782;48.984;8.548;2023-03-31T09:08:32;98589.38;;;14.57;68.53
32298;BME280;18782;48.984;8.548;2023-03-31T09:11:07;98611.81;;;14.55;66.70
32298;BME280;18782;48.984;8.548;2023-03-31T09:13:56;98591.00;;;14.64;63.90
32298;BME280;18782;48.984;8.548;2023-03-31T09:16:33;98592.59;;;14.73;66.60
32298;BME280;18782;48.984;8.548;2023-03-31T09:19:12;98580.66;;;14.61;62.84
32298;BME280;18782;48.984;8.548;2023-03-31T09:21:43;98568.50;;;14.68;63.07
32298;BME280;18782;48.984;8.548;2023-03-31T09:24:15;98583.03;;;14.76;62.76
32298;BME280;18782;48.984;8.548;2023-03-31T09:26:49;98587.13;;;14.94;63.11
32298;BME280;18782;48.984;8.548;2023-03-31T09:29:21;98572.66;;;14.79;62.20
32298;BME280;18782;48.984;8.548;2023-03-31T09:31:52;98586.94;;;15.05;61.50
32298;BME280;18782;48.984;8.548;2023-03-31T09:34:27;98555.72;;;15.12;61.33
32298;BME280;18782;48.984;8.548;2023-03-31T09:36:56;98568.81;;;15.05;60.24
32298;BME280;18782;48.984;8.548;2023-03-31T09:39:24;98584.34;;;15.05;59.94
32298;BME280;18782;48.984;8.548;2023-03-31T09:41:52;98576.25;;;14.69;62.08
32298;BME280;18782;48.984;8.548;2023-03-31T09:44:24;98565.84;;;14.72;62.84
32298;BME280;18782;48.984;8.548;2023-03-31T09:46:54;98574.81;;;14.44;63.27
32298;BME280;18782;48.984;8.548;2023-03-31T09:49:26;98558.91;;;14.06;62.56
32298;BME280;18782;48.984;8.548;2023-03-31T09:52:02;98551.19;;;14.02;64.56
32298;BME280;18782;48.984;8.548;2023-03-31T09:54:43;98538.97;;;14.13;66.34
32298;BME280;18782;48.984;8.548;2023-03-31T09:57:15;98559.50;;;14.28;67.42
32298;BME280;18782;48.984;8.548;2023-03-31T09:59:49;98544.66;;;14.40;66.77
32298;BME280;18782;48.984;8.548;2023-03-31T10:02:32;98538.38;;;14.62;67.48
32298;BME280;18782;48.984;8.548;2023-03-31T10:05:04;98547.34;;;14.33;66.57
32298;BME280;18782;48.984;8.548;2023-03-31T10:07:33;98550.69;;;14.42;66.89
32298;BME280;18782;48.984;8.548;2023-03-31T10:10:02;98550.66;;;14.45;67.17
32298;BME280;18782;48.984;8.548;2023-03-31T10:12:30;98572.31;;;14.38;67.34
32298;BME280;18782;48.984;8.548;2023-03-31T10:15:13;98547.09;;;14.55;67.07
32298;BME280;18782;48.984;8.548;2023-03-31T10:17:44;98545.75;;;14.23;65.13
32298;BME280;18782;48.984;8.548;2023-03-31T10:20:31;98534.22;;;14.46;63.93
32298;BME280;18782;48.984;8.548;2023-03-31T10:23:04;98524.41;;;14.72;63.21
32298;BME280;18782;48.984;8.548;2023-03-31T10:25:41;98530.72;;;15.08;62.84
32298;BME280;18782;48.984;8.548;2023-03-31T10:28:10;98516.50;;;15.32;59.53
32298;BME280;18782;48.984;8.548;2023-03-31T10:30:39;98518.06;;;15.43;59.88
32298;BME280;18782;48.984;8.548;2023-03-31T10:33:12;98513.06;;;15.32;60.15
32298;BME280;18782;48.984;8.548;2023-03-31T10:35:55;98482.69;;;15.38;60.05
32298;BME280;18782;48.984;8.548;2023-03-31T10:38:25;98479.69;;;15.63;59.22
32298;BME280;18782;48.984;8.548;2023-03-31T10:40:55;98488.22;;;15.68;58.20
32298;BME280;18782;48.984;8.548;2023-03-31T10:43:25;98497.53;;;15.30;58.95
32298;BME280;18782;48.984;8.548;2023-03-31T10:45:54;98487.50;;;15.58;60.94
32298;BME280;18782;48.984;8.548;2023-03-31T10:48:25;98534.91;;;15.68;61.55
32298;BME280;18782;48.984;8.548;2023-03-31T10:50:58;98526.25;;;15.20;63.33
32298;BME280;18782;48.984;8.548;2023-03-31T10:53:26;98601.25;;;13.98;70.07
32298;BME280;18782;48.984;8.548;2023-03-31T10:56:18;98568.00;;;12.37;79.34
32298;BME280;18782;48.984;8.548;2023-03-31T10:59:04;98578.41;;;12.27;84.01
32298;BME280;18782;48.984;8.548;2023-03-31T11:01:44;98572.41;;;12.22;86.68
32298;BME280;18782;48.984;8.548;2023-03-31T11:04:32;98579.31;;;12.13;81.58
32298;BME280;18782;48.984;8.548;2023-03-31T11:07:13;98613.75;;;11.76;79.23
32298;BME280;18782;48.984;8.548;2023-03-31T11:09:52;98594.88;;;11.87;80.24
32298;BME280;18782;48.984;8.548;2023-03-31T11:12:26;98609.47;;;11.62;78.05
32298;BME280;18782;48.984;8.548;2023-03-31T11:15:09;98583.72;;;11.51;74.58
32298;BME280;18782;48.984;8.548;2023-03-31T11:17:52;98571.72;;;11.41;77.43
32298;BME280;18782;48.984;8.548;2023-03-31T11:20:27;98571.69;;;11.27;76.98
32298;BME280;18782;48.984;8.548;2023-03-31T11:23:07;98564.84;;;11.34;75.48
32298;BME280;18782;48.984;8.548;2023-03-31T11:25:43;98563.09;;;11.48;74.51
32298;BME280;18782;48.984;8.548;2023-03-31T11:28:55;98557.94;;;11.66;74.03
32298;BME280;18782;48.984;8.548;2023-03-31T11:31:34;98545.00;;;11.88;71.09
32298;BME280;18782;48.984;8.548;2023-03-31T11:34:14;98549.28;;;12.01;70.71
32298;BME280;18782;48.984;8.548;2023-03-31T11:36:57;98542.25;;;12.31;71.77
32298;BME280;18782;48.984;8.548;2023-03-31T11:39:42;98549.91;;;12.49;72.46
32298;BME280;18782;48.984;8.548;2023-03-31T11:42:17;98569.66;;;12.56;70.17
32298;BME280;18782;48.984;8.548;2023-03-31T11:44:49;98541.91;;;12.84;69.29
32298;BME280;18782;48.984;8.548;2023-03-31T11:47:21;98560.50;;;13.34;68.48
32298;BME280;18782;48.984;8.548;2023-03-31T11:49:53;98542.47;;;14.09;66.31
32298;BME280;18782;48.984;8.548;2023-03-31T11:52:26;98544.72;;;14.36;63.79
32298;BME280;18782;48.984;8.548;2023-03-31T11:54:59;98569.59;;;14.50;60.46
32298;BME280;18782;48.984;8.548;2023-03-31T11:57:29;98541.50;;;14.82;61.81
32298;BME280;18782;48.984;8.548;2023-03-31T12:00:05;98547.44;;;14.91;57.39
32298;BME280;18782;48.984;8.548;2023-03-31T12:02:43;98531.25;;;15.30;58.05
32298;BME280;18782;48.984;8.548;2023-03-31T12:05:14;98544.84;;;15.43;55.69
32298;BME280;18782;48.984;8.548;2023-03-31T12:07:47;98565.84;;;15.28;55.19
32298;BME280;18782;48.984;8.548;2023-03-31T12:10:21;98583.34;;;15.15;55.63
32298;BME280;18782;48.984;8.548;2023-03-31T12:12:53;98558.97;;;15.25;55.34
32298;BME280;18782;48.984;8.548;2023-03-31T12:15:24;98540.28;;;15.06;55.02
32298;BME280;18782;48.984;8.548;2023-03-31T12:17:58;98550.53;;;15.12;56.00
32298;BME280;18782;48.984;8.548;2023-03-31T12:20:31;98550.13;;;14.84;55.96
32298;BME280;18782;48.984;8.548;2023-03-31T12:23:01;98546.94;;;14.67;56.15
32298;BME280;18782;48.984;8.548;2023-03-31T12:25:40;98535.09;;;14.49;57.49
32298;BME280;18782;48.984;8.548;2023-03-31T12:28:10;98508.38;;;14.44;57.39
32298;BME280;18782;48.984;8.548;2023-03-31T12:30:39;98535.97;;;14.48;56.94
32298;BME280;18782;48.984;8.548;2023-03-31T12:33:13;98533.34;;;14.50;56.74
32298;BME280;18782;48.984;8.548;2023-03-31T12:35:53;98538.50;;;14.53;57.25
32298;BME280;18782;48.984;8.548;2023-03-31T12:38:32;98533.88;;;14.72;57.18
32298;BME280;18782;48.984;8.548;2023-03-31T12:41:08;98528.88;;;14.63;57.33
32298;BME280;18782;48.984;8.548;2023-03-31T12:44:01;98526.53;;;15.01;58.60
32298;BME280;18782;48.984;8.548;2023-03-31T12:46:58;98551.47;;;15.10;58.11
32298;BME280;18782;48.984;8.548;2023-03-31T12:49:40;98555.56;;;14.66;58.96
32298;BME280;18782;48.984;8.548;2023-03-31T12:52:17;98528.53;;;15.36;58.14
32298;BME280;18782;48.984;8.548;2023-03-31T12:54:59;98537.25;;;14.77;58.67
32298;BME280;18782;48.984;8.548;2023-03-31T12:57:36;98508.09;;;15.18;57.83
32298;BME280;18782;48.984;8.548;2023-03-31T13:00:23;98498.44;;;15.28;57.56
32298;BME280;18782;48.984;8.548;2023-03-31T13:03:34;98497.38;;;14.88;57.62
32298;BME280;18782;48.984;8.548;2023-03-31T13:06:03;98487.97;;;14.81;62.98
32298;BME280;18782;48.984;8.548;2023-03-31T13:08:52;98482.44;;;14.49;60.18
32298;BME280;18782;48.984;8.548;2023-03-31T13:11:22;98482.66;;;14.91;60.28
32298;BME280;18782;48.984;8.548;2023-03-31T13:14:04;98459.44;;;15.82;56.76
32298;BME280;18782;48.984;8.548;2023-03-31T13:16:34;98471.25;;;17.75;52.26
32298;BME280;18782;48.984;8.548;2023-03-31T13:19:02;98458.38;;;17.36;51.84
32298;BME280;18782;48.984;8.548;2023-03-31T13:21:30;98446.53;;;17.26;51.05
32298;BME280;18782;48.984;8.548;2023-03-31T13:23:58;98473.75;;;17.45;50.12
32298;BME280;18782;48.984;8.548;2023-03-31T13:26:38;98439.34;;;18.28;49.40
32298;BME280;18782;48.984;8.548;2023-03-31T13:29:19;98438.13;;;18.92;47.25
32298;BME280;18782;48.984;8.548;2023-03-31T13:32:17;98453.00;;;19.40;45.51
32298;BME280;18782;48.984;8.548;2023-03-31T13:34:57;98431.53;;;18.26;47.42
32298;BME280;18782;48.984;8.548;2023-03-31T13:40:29;98444.78;;;19.52;44.53
32298;BME280;18782;48.984;8.548;2023-03-31T13:43:14;98445.25;;;18.87;45.32
32298;BME280;18782;48.984;8.548;2023-03-31T13:46:03;98447.31;;;18.77;45.63
32298;BME280;18782;48.984;8.548;2023-03-31T13:48:41;98441.94;;;19.59;44.08